This is the latest recevied weather packets stored in our database for station/object KB0BDN-13. If no packets are shown the sender has not sent any weather packets the latest 10 day(s).
| Time | Temp. | Humidity | Pressure | Rain* | Wind** | Luminosity | Snow |
|---|---|---|---|---|---|---|---|
| 1787863596 | 20.56° C | 57% | 1010.8 hPa | 0 mm | - | - | - |
| 1787863454 | 20.56° C | 58% | 1010.7 hPa | 0 mm | - | - | - |
| 1787862696 | 20° C | 60% | 1010.7 hPa | 0 mm | - | - | - |
| 1787861796 | 20° C | 60% | 1010.8 hPa | 0 mm | - | - | - |
| 1787861654 | 20° C | 62% | 1010.7 hPa | 0 mm | - | - | - |
| 1787860896 | 20.56° C | 59% | 1010.7 hPa | 0 mm | - | - | - |
| 1787860757 | 21.11° C | 58% | 1010.7 hPa | 0 mm | - | - | - |
| 1787859996 | 20.56° C | 60% | 1010.7 hPa | 0 mm | - | - | - |
| 1787859854 | 20.56° C | 62% | 1010.4 hPa | 0 mm | - | - | - |
| 1787859099 | 20° C | 64% | 1010.4 hPa | 0 mm | - | - | - |
| 1787858196 | 20° C | 65% | 1010.6 hPa | 0 mm | - | - | - |
| 1787858054 | 20° C | 65% | 1010.5 hPa | 0 mm | - | - | - |
| 1787857296 | 20.56° C | 63% | 1010.5 hPa | 0 mm | - | - | - |
| 1787857154 | 20.56° C | 62% | 1010.5 hPa | 0 mm | - | - | - |
| 1787856396 | 20.56° C | 65% | 1010.5 hPa | 0 mm | - | - | - |
| 1787856254 | 20.56° C | 67% | 1010.4 hPa | 0 mm | - | - | - |
| 1787855496 | 20° C | 66% | 1010.4 hPa | 0 mm | - | - | - |
| 1787855354 | 20° C | 65% | 1010.5 hPa | 0 mm | - | - | - |
| 1787854596 | 20.56° C | 64% | 1010.5 hPa | 0 mm | - | - | - |
| 1787854454 | 21.11° C | 63% | 1010.6 hPa | 0 mm | - | - | - |
| 1787853696 | 20° C | 68% | 1010.6 hPa | 0 mm | - | - | - |
| 1787853554 | 20° C | 67% | 1010.5 hPa | 0 mm | - | - | - |
| 1787852796 | 18.89° C | 70% | 1010.5 hPa | 0 mm | - | - | - |
| 1787852654 | 18.89° C | 71% | 1010.5 hPa | 0 mm | - | - | - |
| 1787851896 | 19.44° C | 67% | 1010.5 hPa | 0 mm | - | - | - |
* Rain latest hour (hover to see other rain measurements)
** Current wind speed in m/s (hover to see current wind gust speed)